createdAt,value
2022-11-24T00:02:31.548Z,45.67
2022-11-24T00:05:38.640Z,47.47
2022-11-24T00:08:42.177Z,43.13
2022-11-24T00:11:44.308Z,41.65
2022-11-24T00:14:47.083Z,34.80
2022-11-24T00:17:49.239Z,40.33
2022-11-24T00:20:54.488Z,44.50
2022-11-24T00:23:56.918Z,40.35
2022-11-24T00:26:59.288Z,38.22
2022-11-24T00:30:01.951Z,43.47
2022-11-24T00:33:04.197Z,40.43
2022-11-24T00:36:06.463Z,38.35
2022-11-24T00:39:12.577Z,46.42
2022-11-24T00:42:14.963Z,44.70
2022-11-24T00:45:17.120Z,46.97
2022-11-24T00:48:19.283Z,43.80
2022-11-24T00:51:22.616Z,45.35
2022-11-24T00:54:24.750Z,38.28
2022-11-24T00:57:26.873Z,37.42
2022-11-24T01:00:29.738Z,43.43
2022-11-24T01:03:32.029Z,46.83
2022-11-24T01:06:35.746Z,43.00
2022-11-24T01:09:38.011Z,47.88
2022-11-24T01:12:40.144Z,61.13
2022-11-24T01:15:42.325Z,53.95
2022-11-24T01:18:44.835Z,46.47
2022-11-24T01:21:47.246Z,50.28
2022-11-24T01:24:49.366Z,52.17
2022-11-24T01:27:51.512Z,59.92
2022-11-24T01:31:00.751Z,55.00
2022-11-24T01:34:03.042Z,54.60
2022-11-24T01:37:05.204Z,54.47
2022-11-24T01:40:07.822Z,63.08
2022-11-24T01:43:20.708Z,62.53
2022-11-24T01:46:30.941Z,66.30
2022-11-24T01:49:39.567Z,64.87
2022-11-24T01:52:45.136Z,62.55
2022-11-24T01:55:47.790Z,69.63
2022-11-24T01:58:51.105Z,64.40
2022-11-24T02:01:53.601Z,68.83
2022-11-24T02:05:00.175Z,69.67
2022-11-24T02:08:02.743Z,55.38
2022-11-24T02:11:05.264Z,64.47
2022-11-24T02:14:08.154Z,67.90
2022-11-24T02:17:10.359Z,63.75
2022-11-24T02:20:13.311Z,64.57
2022-11-24T02:23:28.404Z,71.13
2022-11-24T02:26:30.502Z,66.30
2022-11-24T02:29:32.736Z,73.88
2022-11-24T02:32:34.968Z,62.67
2022-11-24T02:35:37.144Z,62.77
2022-11-24T02:38:39.242Z,66.40
2022-11-24T02:41:53.698Z,67.10
2022-11-24T02:44:57.656Z,64.93
2022-11-24T02:48:00.033Z,60.13
2022-11-24T02:51:02.445Z,69.53
2022-11-24T02:54:04.935Z,68.00
2022-11-24T02:57:07.159Z,77.85
2022-11-24T03:00:09.803Z,83.00
2022-11-24T03:03:12.185Z,72.90
2022-11-24T03:06:14.616Z,87.00
2022-11-24T03:09:16.812Z,82.50
2022-11-24T03:12:18.997Z,76.15
2022-11-24T03:15:21.714Z,95.10
2022-11-24T03:18:23.886Z,77.60
2022-11-24T03:21:26.070Z,95.27
2022-11-24T03:24:28.230Z,77.82
2022-11-24T03:27:30.635Z,82.47
2022-11-24T03:30:32.805Z,89.47
2022-11-24T03:33:35.300Z,90.63
2022-11-24T03:36:37.722Z,99.90
2022-11-24T03:39:39.954Z,100.70
2022-11-24T03:42:42.123Z,107.25
2022-11-24T03:45:47.935Z,92.13
2022-11-24T03:48:50.094Z,91.90
2022-11-24T03:51:54.144Z,86.40
2022-11-24T03:54:56.519Z,98.30
2022-11-24T03:57:58.954Z,93.70
2022-11-24T04:01:01.118Z,93.63
2022-11-24T04:04:03.248Z,90.90
2022-11-24T04:07:05.452Z,93.17
2022-11-24T04:10:07.946Z,93.90
2022-11-24T04:13:14.098Z,98.07
2022-11-24T04:16:16.269Z,89.40
2022-11-24T04:19:18.717Z,103.25
2022-11-24T04:22:21.098Z,88.80
2022-11-24T04:25:23.241Z,81.00
2022-11-24T04:28:26.126Z,81.68
2022-11-24T04:31:28.291Z,76.40
2022-11-24T04:34:30.461Z,79.53
2022-11-24T04:37:32.992Z,92.57
2022-11-24T04:40:35.119Z,90.20
2022-11-24T04:43:40.578Z,86.82
2022-11-24T04:46:43.273Z,92.90
2022-11-24T04:49:46.837Z,85.30
2022-11-24T04:52:49.084Z,87.07
2022-11-24T04:55:51.188Z,89.70
2022-11-24T04:58:53.347Z,73.88
2022-11-24T05:01:55.498Z,77.95
2022-11-24T05:04:57.705Z,86.07
2022-11-24T05:08:00.333Z,78.83
2022-11-24T05:11:06.596Z,79.13
2022-11-24T05:14:08.710Z,83.10
2022-11-24T05:17:10.895Z,87.60
2022-11-24T05:20:13.080Z,89.00
2022-11-24T05:23:15.766Z,99.10
2022-11-24T05:26:18.447Z,98.57
2022-11-24T05:29:20.896Z,100.88
2022-11-24T05:32:23.259Z,92.90
2022-11-24T05:35:25.524Z,91.05
2022-11-24T05:38:27.844Z,94.40
2022-11-24T05:41:30.126Z,94.88
2022-11-24T05:44:32.849Z,94.50
2022-11-24T05:47:35.542Z,96.13
2022-11-24T05:50:37.787Z,98.25
2022-11-24T05:53:40.069Z,101.07
2022-11-24T05:56:42.240Z,94.63
2022-11-24T05:59:44.792Z,101.82
2022-11-24T06:02:47.165Z,90.60
2022-11-24T06:05:49.497Z,102.68
2022-11-24T06:08:51.760Z,97.10
2022-11-24T06:11:54.089Z,88.38
2022-11-24T06:14:56.392Z,86.03
2022-11-24T06:17:58.699Z,79.72
2022-11-24T06:21:10.640Z,93.20
2022-11-24T06:24:14.798Z,84.70
2022-11-24T06:27:17.454Z,79.18
2022-11-24T06:30:19.779Z,74.15
2022-11-24T06:33:22.018Z,80.85
2022-11-24T06:36:24.392Z,78.60
2022-11-24T06:39:26.868Z,90.33
2022-11-24T06:42:29.357Z,80.50
2022-11-24T06:45:33.614Z,84.00
2022-11-24T06:48:42.671Z,81.63
2022-11-24T06:51:51.784Z,81.50
2022-11-24T06:55:03.803Z,74.73
2022-11-24T06:58:09.840Z,76.50
2022-11-24T07:01:22.365Z,76.07
2022-11-24T07:04:24.738Z,76.35
2022-11-24T07:07:27.232Z,66.25
2022-11-24T07:10:29.832Z,78.07
2022-11-24T07:13:34.896Z,60.38
2022-11-24T07:16:40.084Z,74.60
2022-11-24T07:19:42.464Z,70.45
2022-11-24T07:22:44.882Z,66.60
2022-11-24T07:25:47.285Z,63.20
2022-11-24T07:28:49.789Z,60.45
2022-11-24T07:31:52.577Z,61.28
2022-11-24T07:34:54.961Z,53.78
2022-11-24T07:37:58.405Z,55.28
2022-11-24T07:41:08.396Z,49.40
2022-11-24T07:44:10.751Z,47.75
2022-11-24T07:47:16.799Z,51.45
2022-11-24T07:50:22.651Z,54.63
2022-11-24T07:53:27.959Z,56.92
2022-11-24T07:56:32.485Z,56.40
2022-11-24T07:59:47.828Z,48.72
2022-11-24T08:02:51.727Z,50.47
2022-11-24T08:09:20.614Z,47.95
2022-11-24T08:12:23.121Z,55.63
2022-11-24T08:15:25.572Z,48.97
2022-11-24T08:18:28.101Z,48.97
2022-11-24T08:21:30.398Z,43.00
2022-11-24T08:24:32.986Z,48.42
2022-11-24T08:27:35.484Z,43.53
2022-11-24T08:30:37.705Z,49.45
2022-11-24T08:33:40.282Z,42.72
2022-11-24T08:36:43.396Z,50.95
2022-11-24T08:39:46.320Z,45.75
2022-11-24T08:42:49.022Z,46.83
2022-11-24T08:45:51.427Z,50.40
2022-11-24T08:48:57.279Z,44.03
2022-11-24T08:52:02.822Z,43.80
2022-11-24T08:56:11.257Z,52.03
2022-11-24T08:59:14.493Z,55.03
2022-11-24T09:02:24.333Z,54.75
2022-11-24T09:05:51.342Z,51.80
2022-11-24T09:08:49.553Z,51.25
2022-11-24T09:11:52.407Z,58.28
2022-11-24T09:14:55.960Z,50.17
2022-11-24T09:18:00.311Z,52.60
2022-11-24T09:21:21.316Z,44.03
2022-11-24T09:24:23.651Z,46.72
2022-11-24T09:27:26.907Z,54.42
2022-11-24T09:30:31.004Z,49.00
2022-11-24T09:33:33.557Z,44.75
2022-11-24T09:36:36.733Z,48.05
2022-11-24T09:39:39.632Z,47.75
2022-11-24T09:42:53.257Z,50.25
2022-11-24T09:46:06.134Z,54.07
2022-11-24T09:49:12.910Z,52.58
2022-11-24T09:52:18.706Z,51.63
2022-11-24T09:55:25.877Z,51.25
2022-11-24T09:58:34.348Z,44.67
2022-11-24T10:01:37.708Z,50.23
2022-11-24T10:04:42.271Z,48.45
2022-11-24T10:07:51.369Z,42.67
2022-11-24T10:10:59.690Z,46.30
2022-11-24T10:14:08.333Z,46.90
2022-11-24T10:17:31.967Z,43.73
2022-11-24T10:20:49.753Z,44.17
2022-11-24T10:24:08.367Z,46.50
2022-11-24T10:27:22.579Z,42.92
2022-11-24T10:30:30.944Z,43.97
2022-11-24T10:33:33.931Z,46.83
2022-11-24T10:36:44.000Z,44.08
2022-11-24T10:40:00.289Z,45.08
2022-11-24T10:43:09.690Z,45.90
2022-11-24T10:46:15.856Z,43.53
2022-11-24T10:49:20.462Z,41.80
2022-11-24T10:52:27.413Z,43.53
2022-11-24T10:55:48.453Z,40.97
2022-11-24T10:58:51.939Z,42.15
2022-11-24T11:01:56.003Z,39.30
2022-11-24T11:04:58.868Z,36.90
2022-11-24T11:08:14.769Z,40.53
2022-11-24T11:11:17.061Z,44.42
2022-11-24T11:14:37.879Z,41.35
2022-11-24T11:17:41.463Z,42.17
2022-11-24T11:20:56.614Z,43.53
2022-11-24T11:24:00.026Z,41.30
2022-11-24T11:27:04.327Z,35.90
2022-11-24T11:34:14.418Z,36.58
2022-11-24T11:37:20.906Z,31.67
2022-11-24T11:40:26.377Z,35.42
2022-11-24T11:43:34.514Z,35.90
2022-11-24T11:46:38.776Z,39.85
2022-11-24T11:49:45.656Z,34.88
2022-11-24T11:53:02.402Z,37.53
2022-11-24T11:56:18.814Z,34.88
2022-11-24T11:59:41.572Z,32.90
2022-11-24T12:02:51.558Z,36.38
2022-11-24T12:06:00.710Z,33.38
2022-11-24T12:09:20.797Z,34.73
2022-11-24T12:12:49.284Z,27.80
2022-11-24T12:15:53.091Z,30.17
2022-11-24T12:19:06.513Z,28.95
2022-11-24T12:22:31.094Z,34.60
2022-11-24T12:26:07.719Z,34.20
2022-11-24T12:29:26.461Z,31.20
2022-11-24T12:32:36.512Z,29.02
2022-11-24T12:39:57.196Z,31.75
2022-11-24T12:43:00.698Z,28.53
2022-11-24T12:46:22.490Z,27.73
2022-11-24T12:49:31.873Z,33.95
2022-11-24T12:52:45.079Z,29.80
2022-11-24T12:55:49.380Z,27.00
2022-11-24T12:58:54.750Z,30.23
2022-11-24T13:02:16.184Z,33.03
2022-11-24T13:05:43.937Z,27.95
2022-11-24T13:08:46.464Z,27.38
2022-11-24T13:11:52.397Z,28.33
2022-11-24T13:14:55.430Z,29.23
2022-11-24T13:18:07.107Z,28.52
2022-11-24T13:21:55.247Z,27.65
2022-11-24T13:25:23.696Z,25.77
2022-11-24T13:29:01.742Z,27.63
2022-11-24T13:32:06.402Z,25.13
2022-11-24T13:35:15.888Z,28.95
2022-11-24T13:38:38.254Z,28.35
2022-11-24T13:41:40.688Z,29.58
2022-11-24T13:44:46.176Z,24.50
2022-11-24T13:47:51.765Z,28.27
2022-11-24T13:50:54.260Z,24.05
2022-11-24T13:53:57.749Z,27.42
2022-11-24T13:57:18.962Z,29.35
2022-11-24T14:00:32.425Z,24.67
2022-11-24T14:04:28.166Z,21.53
2022-11-24T14:07:15.446Z,26.83
2022-11-24T14:10:38.596Z,23.52
2022-11-24T14:13:40.959Z,28.52
2022-11-24T14:16:43.308Z,26.85
2022-11-24T14:19:47.489Z,27.00
2022-11-24T14:22:50.335Z,21.88
2022-11-24T14:25:52.974Z,25.33
2022-11-24T14:29:02.756Z,26.08
2022-11-24T14:32:16.100Z,23.75
2022-11-24T14:35:26.955Z,22.87
2022-11-24T14:38:29.999Z,24.80
2022-11-24T14:41:33.185Z,25.13
2022-11-24T14:44:45.535Z,23.90
2022-11-24T14:47:48.094Z,24.77
2022-11-24T14:51:15.313Z,25.47
2022-11-24T14:54:19.426Z,21.60
2022-11-24T14:57:37.814Z,25.17
2022-11-24T15:00:40.265Z,22.55
2022-11-24T15:03:42.646Z,25.20
2022-11-24T15:06:47.194Z,27.70
2022-11-24T15:09:54.345Z,25.77
2022-11-24T15:12:58.076Z,26.23
2022-11-24T15:16:20.004Z,23.55
2022-11-24T15:19:24.343Z,23.73
2022-11-24T15:22:27.680Z,28.50
2022-11-24T15:25:33.833Z,25.48
2022-11-24T15:28:36.387Z,26.05
2022-11-24T15:31:44.222Z,30.85
2022-11-24T15:34:50.138Z,31.33
2022-11-24T15:37:52.463Z,30.73
2022-11-24T15:40:55.458Z,28.13
2022-11-24T15:44:00.633Z,29.17
2022-11-24T15:47:03.275Z,26.15
2022-11-24T15:50:05.841Z,27.70
2022-11-24T15:53:19.133Z,31.40
2022-11-24T15:56:24.653Z,30.48
2022-11-24T15:59:27.055Z,27.27
2022-11-24T16:02:30.283Z,30.10
2022-11-24T16:05:32.698Z,32.92
2022-11-24T16:08:34.896Z,28.63
2022-11-24T16:11:37.408Z,32.83
2022-11-24T16:14:39.819Z,29.15
2022-11-24T16:17:42.384Z,35.80
2022-11-24T16:20:44.698Z,30.38
2022-11-24T16:23:47.953Z,25.77
2022-11-24T16:26:50.317Z,29.48
2022-11-24T16:29:52.789Z,30.73
2022-11-24T16:32:55.184Z,33.80
2022-11-24T16:35:57.497Z,27.52
2022-11-24T16:38:59.975Z,32.07
2022-11-24T16:42:02.641Z,30.40
2022-11-24T16:45:05.280Z,36.10
2022-11-24T16:48:07.503Z,35.95
2022-11-24T16:51:12.870Z,29.75
2022-11-24T16:54:15.262Z,33.90
2022-11-24T16:57:17.629Z,31.60
2022-11-24T17:00:21.044Z,35.53
2022-11-24T17:03:23.433Z,32.58
2022-11-24T17:06:26.955Z,38.17
2022-11-24T17:09:29.273Z,34.57
2022-11-24T17:12:31.686Z,36.38
2022-11-24T17:15:39.174Z,40.80
2022-11-24T17:18:45.872Z,31.60
2022-11-24T17:21:48.161Z,37.13
2022-11-24T17:24:50.446Z,38.37
2022-11-24T17:27:53.485Z,36.30
2022-11-24T17:30:56.186Z,35.85
2022-11-24T17:33:59.015Z,39.22
2022-11-24T17:37:02.098Z,35.80
2022-11-24T17:40:27.234Z,32.20
2022-11-24T17:43:27.626Z,34.95
2022-11-24T17:46:30.665Z,29.55
2022-11-24T17:49:33.675Z,33.90
2022-11-24T17:52:35.900Z,38.83
2022-11-24T17:55:38.238Z,40.03
2022-11-24T17:58:43.162Z,34.58
2022-11-24T18:01:45.880Z,35.58
2022-11-24T18:04:48.340Z,36.63
2022-11-24T18:07:50.790Z,38.23
2022-11-24T18:10:53.216Z,34.40
2022-11-24T18:14:00.270Z,37.00
2022-11-24T18:17:03.799Z,32.58
2022-11-24T18:20:07.248Z,32.40
2022-11-24T18:23:09.545Z,36.88
2022-11-24T18:26:14.954Z,29.87
2022-11-24T18:29:17.404Z,39.35
2022-11-24T18:32:20.169Z,39.38
2022-11-24T18:35:22.694Z,37.20
2022-11-24T18:38:25.967Z,44.07
2022-11-24T18:41:28.267Z,39.17
2022-11-24T18:44:30.608Z,36.38
2022-11-24T18:47:33.413Z,37.38
2022-11-24T18:50:35.867Z,41.05
2022-11-24T18:53:38.392Z,43.93
2022-11-24T18:56:40.753Z,42.80
2022-11-24T18:59:43.109Z,34.15
2022-11-24T19:02:49.970Z,31.55
2022-11-24T19:05:52.297Z,41.03
2022-11-24T19:08:54.948Z,41.73
2022-11-24T19:11:57.454Z,40.63
2022-11-24T19:14:59.983Z,40.92
2022-11-24T19:18:02.788Z,41.60
2022-11-24T19:21:05.791Z,38.78
2022-11-24T19:24:10.208Z,38.30
2022-11-24T19:27:14.501Z,35.60
2022-11-24T19:30:17.312Z,36.90
2022-11-24T19:33:21.598Z,41.92
2022-11-24T19:36:24.401Z,35.53
2022-11-24T19:39:27.011Z,35.23
2022-11-24T19:42:29.466Z,41.23
2022-11-24T19:45:33.124Z,38.55
2022-11-24T19:48:40.113Z,36.90
2022-11-24T19:51:42.706Z,40.83
2022-11-24T19:54:46.034Z,41.27
2022-11-24T19:57:48.465Z,42.40
2022-11-24T20:00:50.740Z,42.95
2022-11-24T20:04:07.687Z,41.55
2022-11-24T20:07:11.214Z,39.88
2022-11-24T20:10:13.538Z,38.97
2022-11-24T20:13:16.014Z,44.33
2022-11-24T20:16:31.437Z,47.15
2022-11-24T20:19:33.761Z,42.15
2022-11-24T20:22:36.227Z,54.45
2022-11-24T20:25:38.911Z,45.37
2022-11-24T20:28:41.723Z,45.30
2022-11-24T20:31:45.792Z,45.97
2022-11-24T20:34:49.362Z,48.08
2022-11-24T20:37:53.340Z,45.17
2022-11-24T20:41:04.599Z,40.63
2022-11-24T20:44:13.238Z,40.60
2022-11-24T20:47:15.929Z,49.00
2022-11-24T20:50:18.458Z,47.17
2022-11-24T20:53:21.073Z,39.80
2022-11-24T20:56:24.721Z,47.90
2022-11-24T20:59:27.107Z,39.47
2022-11-24T21:02:30.081Z,46.08
2022-11-24T21:05:32.473Z,48.65
2022-11-24T21:08:36.088Z,45.40
2022-11-24T21:11:38.976Z,44.73
2022-11-24T21:14:41.696Z,48.83
2022-11-24T21:17:44.186Z,47.92
2022-11-24T21:20:46.823Z,42.20
2022-11-24T21:23:49.493Z,41.15
2022-11-24T21:26:53.006Z,40.57
2022-11-24T21:29:55.345Z,42.07
2022-11-24T21:32:57.685Z,42.42
2022-11-24T21:36:04.295Z,39.03
2022-11-24T21:39:06.858Z,48.90
2022-11-24T21:42:09.071Z,45.13
2022-11-24T21:45:12.140Z,47.30
2022-11-24T21:48:14.388Z,46.85
2022-11-24T21:51:17.848Z,43.88
2022-11-24T21:54:20.378Z,46.70
2022-11-24T21:57:23.221Z,44.30
2022-11-24T22:00:25.771Z,45.30
2022-11-24T22:03:27.950Z,44.55
2022-11-24T22:06:32.060Z,50.35
2022-11-24T22:09:34.620Z,46.90
2022-11-24T22:12:36.908Z,46.47
2022-11-24T22:15:40.383Z,47.57
2022-11-24T22:18:43.331Z,48.55
2022-11-24T22:21:45.896Z,42.55
2022-11-24T22:24:48.146Z,47.42
2022-11-24T22:27:50.462Z,54.80
2022-11-24T22:30:52.763Z,58.97
2022-11-24T22:33:55.716Z,59.10
2022-11-24T22:36:57.881Z,49.47
2022-11-24T22:40:00.140Z,45.63
2022-11-24T22:43:02.654Z,53.07
2022-11-24T22:46:05.826Z,41.67
2022-11-24T22:49:10.089Z,45.55
2022-11-24T22:52:14.068Z,48.05
2022-11-24T22:55:16.564Z,45.05
2022-11-24T22:58:18.747Z,47.53
2022-11-24T23:01:22.306Z,44.40
2022-11-24T23:04:24.562Z,46.95
2022-11-24T23:07:27.207Z,46.50
2022-11-24T23:10:29.416Z,44.05
2022-11-24T23:13:31.603Z,45.77
2022-11-24T23:16:33.848Z,45.33
2022-11-24T23:19:36.351Z,40.90
2022-11-24T23:22:38.514Z,45.40
2022-11-24T23:25:40.882Z,42.05
2022-11-24T23:28:46.029Z,40.30
2022-11-24T23:31:48.330Z,51.77
2022-11-24T23:34:50.958Z,42.70
2022-11-24T23:38:06.940Z,42.15
2022-11-24T23:41:11.676Z,45.10
2022-11-24T23:44:13.882Z,46.10
2022-11-24T23:47:16.410Z,45.90
2022-11-24T23:50:18.734Z,47.92
2022-11-24T23:53:20.995Z,45.80
2022-11-24T23:56:24.417Z,43.17
2022-11-24T23:59:27.051Z,42.37
